createdAt,value
2024-01-28T00:00:58.988Z,6.37
2024-01-28T00:06:06.702Z,7.13
2024-01-28T00:11:11.996Z,7.23
2024-01-28T00:16:20.725Z,7.90
2024-01-28T00:21:26.166Z,6.37
2024-01-28T00:26:31.580Z,6.40
2024-01-28T00:31:39.781Z,6.77
2024-01-28T00:36:44.963Z,8.77
2024-01-28T00:41:50.316Z,8.03
2024-01-28T00:46:59.116Z,8.23
2024-01-28T00:52:04.523Z,9.43
2024-01-28T00:57:11.726Z,9.13
2024-01-28T01:02:20.110Z,8.77
2024-01-28T01:07:25.626Z,8.83
2024-01-28T01:12:31.170Z,8.10
2024-01-28T01:17:39.446Z,9.10
2024-01-28T01:22:45.557Z,9.10
2024-01-28T01:27:53.766Z,8.83
2024-01-28T01:33:01.785Z,8.30
2024-01-28T01:38:09.612Z,9.83
2024-01-28T01:43:17.218Z,9.53
2024-01-28T01:48:28.402Z,7.70
2024-01-28T01:53:35.977Z,8.50
2024-01-28T01:58:41.683Z,7.60
2024-01-28T02:03:49.882Z,6.90
2024-01-28T02:08:55.280Z,6.77
2024-01-28T02:14:00.515Z,10.50
2024-01-28T02:19:08.390Z,8.70
2024-01-28T02:24:16.638Z,8.57
2024-01-28T02:29:21.761Z,8.97
2024-01-28T02:34:27.181Z,8.17
2024-01-28T02:39:35.389Z,9.50
2024-01-28T02:44:41.884Z,8.27
2024-01-28T02:49:49.492Z,10.23
2024-01-28T02:54:58.296Z,8.60
2024-01-28T03:00:04.861Z,8.43
2024-01-28T03:05:13.623Z,7.90
2024-01-28T03:10:21.815Z,9.57
2024-01-28T03:15:27.226Z,8.63
2024-01-28T03:20:32.364Z,10.33
2024-01-28T03:25:40.145Z,8.60
2024-01-28T03:30:45.367Z,8.20
2024-01-28T03:35:50.604Z,8.73
2024-01-28T03:40:58.764Z,7.63
2024-01-28T03:46:03.892Z,7.93
2024-01-28T03:51:10.281Z,7.90
2024-01-28T03:56:18.039Z,7.50
2024-01-28T04:01:34.014Z,9.33
2024-01-28T04:06:45.814Z,9.33
2024-01-28T04:11:56.294Z,8.10
2024-01-28T04:17:01.989Z,12.10
2024-01-28T04:22:07.624Z,8.27
2024-01-28T04:27:15.526Z,8.43
2024-01-28T04:32:21.562Z,8.37
2024-01-28T04:37:27.875Z,8.47
2024-01-28T04:42:35.696Z,7.60
2024-01-28T04:47:42.937Z,8.60
2024-01-28T04:52:48.124Z,10.30
2024-01-28T04:57:55.876Z,8.40
2024-01-28T05:03:01.951Z,7.17
2024-01-28T05:08:10.557Z,7.33
2024-01-28T05:13:18.710Z,8.17
2024-01-28T05:18:24.352Z,8.40
2024-01-28T05:23:32.578Z,8.23
2024-01-28T05:28:43.307Z,7.37
2024-01-28T05:33:49.211Z,8.17
2024-01-28T05:38:55.838Z,7.97
2024-01-28T05:44:04.001Z,8.47
2024-01-28T05:49:12.946Z,7.70
2024-01-28T05:54:19.022Z,7.33
2024-01-28T05:59:28.849Z,7.97
2024-01-28T06:04:34.379Z,7.80
2024-01-28T06:09:45.219Z,7.47
2024-01-28T06:14:54.427Z,7.10
2024-01-28T06:20:01.089Z,7.50
2024-01-28T06:25:06.873Z,7.43
2024-01-28T06:30:16.579Z,7.70
2024-01-28T06:35:25.029Z,7.97
2024-01-28T06:40:34.153Z,7.13
2024-01-28T06:45:42.577Z,7.30
2024-01-28T06:50:50.013Z,6.97
2024-01-28T06:55:57.523Z,7.00
2024-01-28T07:01:05.760Z,7.20
2024-01-28T07:06:11.418Z,7.20
2024-01-28T07:11:19.122Z,7.70
2024-01-28T07:16:27.104Z,7.60
2024-01-28T07:21:34.789Z,6.40
2024-01-28T07:26:43.009Z,6.77
2024-01-28T07:31:52.581Z,7.20
2024-01-28T07:36:59.921Z,7.73
2024-01-28T07:42:07.917Z,7.77
2024-01-28T07:47:16.230Z,7.77
2024-01-28T07:52:24.195Z,9.53
2024-01-28T07:57:32.288Z,14.33
2024-01-28T08:02:40.363Z,10.80
2024-01-28T08:07:45.512Z,8.43
2024-01-28T08:12:55.624Z,7.93
2024-01-28T08:18:13.017Z,8.13
2024-01-28T08:23:19.906Z,7.37
2024-01-28T08:28:28.551Z,7.57
2024-01-28T09:31:20.362Z,4.57
2024-01-28T09:36:43.357Z,4.43
2024-01-28T09:41:58.136Z,5.17
2024-01-28T09:47:03.813Z,4.63
2024-01-28T09:52:12.719Z,4.37
2024-01-28T09:57:22.664Z,4.50
2024-01-28T10:02:30.685Z,3.97
2024-01-28T10:07:49.209Z,3.70
2024-01-28T10:13:01.504Z,4.43
2024-01-28T10:18:07.644Z,4.03
2024-01-28T10:23:18.319Z,3.47
2024-01-28T10:28:29.468Z,3.80
2024-01-28T10:33:38.048Z,3.80
2024-01-28T10:38:50.132Z,4.50
2024-01-28T10:44:01.474Z,4.00
2024-01-28T10:49:09.514Z,4.10
2024-01-28T10:54:20.196Z,5.20
2024-01-28T10:59:28.511Z,4.67
2024-01-28T11:04:41.176Z,4.50
2024-01-28T11:09:50.380Z,3.97
2024-01-28T11:14:56.694Z,3.70
2024-01-28T11:20:10.513Z,3.83
2024-01-28T11:25:21.125Z,3.17
2024-01-28T11:30:28.220Z,4.40
2024-01-28T11:35:33.998Z,3.13
2024-01-28T11:40:43.969Z,3.30
2024-01-28T11:45:49.884Z,3.07
2024-01-28T11:50:59.359Z,2.80
2024-01-28T11:56:14.922Z,3.53
2024-01-28T12:01:20.643Z,2.90
2024-01-28T12:06:29.100Z,3.00
2024-01-28T12:11:36.974Z,3.27
2024-01-28T12:16:42.158Z,3.37
2024-01-28T12:21:47.426Z,2.83
2024-01-28T12:26:57.058Z,3.77
2024-01-28T12:32:05.473Z,2.80
2024-01-28T12:37:10.543Z,2.83
2024-01-28T12:42:21.388Z,3.60
2024-01-28T12:47:28.884Z,3.50
2024-01-28T12:52:34.897Z,3.07
2024-01-28T12:57:45.706Z,3.17
2024-01-28T13:02:50.966Z,2.87
2024-01-28T13:07:57.570Z,2.97
2024-01-28T13:13:14.448Z,3.20
2024-01-28T13:18:30.297Z,3.00
2024-01-28T13:23:46.434Z,4.17
2024-01-28T13:28:54.203Z,3.40
2024-01-28T13:34:02.940Z,4.07
2024-01-28T13:39:10.257Z,3.87
2024-01-28T13:44:19.526Z,2.90
2024-01-28T13:49:25.211Z,5.27
2024-01-28T13:54:34.580Z,2.63
2024-01-28T13:59:45.376Z,2.80
2024-01-28T14:04:56.815Z,3.87
2024-01-28T14:10:04.683Z,3.40
2024-01-28T14:15:13.682Z,4.27
2024-01-28T14:20:19.095Z,3.07
2024-01-28T14:25:26.903Z,3.87
2024-01-28T14:30:34.797Z,3.63
2024-01-28T14:35:39.920Z,3.27
2024-01-28T14:40:45.306Z,3.60
2024-01-28T14:45:55.584Z,3.20
2024-01-28T14:51:01.737Z,3.53
2024-01-28T14:56:07.627Z,4.07
2024-01-28T15:01:18.057Z,3.10
2024-01-28T15:06:26.558Z,4.33
2024-01-28T15:11:36.150Z,5.67
2024-01-28T15:16:44.488Z,4.67
2024-01-28T15:21:49.787Z,4.63
2024-01-28T15:26:55.178Z,4.57
2024-01-28T15:32:04.214Z,4.47
2024-01-28T15:37:09.651Z,4.10
2024-01-28T15:42:14.881Z,4.53
2024-01-28T15:47:23.080Z,3.70
2024-01-28T15:52:28.676Z,3.97
2024-01-28T15:57:36.223Z,3.90
2024-01-28T16:02:45.327Z,4.60
2024-01-28T16:07:50.556Z,4.00
2024-01-28T16:12:56.544Z,4.60
2024-01-28T16:18:05.104Z,5.00
2024-01-28T16:23:13.477Z,4.33
2024-01-28T16:28:18.631Z,5.13
2024-01-28T16:33:26.690Z,6.27
2024-01-28T16:38:33.154Z,6.60
2024-01-28T16:43:38.207Z,5.20
2024-01-28T16:48:46.311Z,7.23
2024-01-28T16:53:51.853Z,6.83
2024-01-28T16:58:57.263Z,8.70
2024-01-28T17:04:17.471Z,6.43
2024-01-28T17:09:23.664Z,6.43
2024-01-28T17:14:29.280Z,6.73
2024-01-28T17:19:40.407Z,7.30
2024-01-28T17:24:46.807Z,8.23
2024-01-28T17:29:52.232Z,6.60
2024-01-28T17:35:01.189Z,6.07
2024-01-28T17:40:09.789Z,6.57
2024-01-28T17:45:17.413Z,6.70
2024-01-28T17:50:25.454Z,8.17
2024-01-28T17:55:32.404Z,7.17
2024-01-28T18:00:37.768Z,7.63
2024-01-28T18:05:45.791Z,7.17
2024-01-28T18:10:50.976Z,7.00
2024-01-28T18:15:56.792Z,8.27
2024-01-28T18:21:05.334Z,7.77
2024-01-28T18:26:12.892Z,7.57
2024-01-28T18:31:20.889Z,8.40
2024-01-28T18:36:29.149Z,8.70
2024-01-28T18:41:34.400Z,8.83
2024-01-28T18:46:39.980Z,8.43
2024-01-28T18:51:47.668Z,9.67
2024-01-28T18:56:52.909Z,8.27
2024-01-28T19:02:00.075Z,9.10
2024-01-28T19:07:11.660Z,9.90
2024-01-28T19:12:23.843Z,8.63
2024-01-28T19:17:31.135Z,7.87
2024-01-28T19:22:39.824Z,10.47
2024-01-28T19:27:51.796Z,9.57
2024-01-28T19:32:59.966Z,10.00
2024-01-28T19:38:09.755Z,9.63
2024-01-28T19:43:20.014Z,10.33
2024-01-28T19:48:25.536Z,8.50
2024-01-28T19:53:43.304Z,10.57
2024-01-28T19:58:51.573Z,10.83
2024-01-28T20:04:00.954Z,10.30
2024-01-28T20:09:14.095Z,8.63
2024-01-28T20:20:05.492Z,10.20
2024-01-28T20:31:19.617Z,9.93
2024-01-28T20:53:21.581Z,9.93
2024-01-28T20:58:40.492Z,10.27
2024-01-28T21:26:26.171Z,8.80
2024-01-28T21:31:39.335Z,9.20
2024-01-28T21:42:26.268Z,9.60
2024-01-28T21:47:54.774Z,8.93
2024-01-28T21:53:16.977Z,9.57
2024-01-28T21:58:27.207Z,9.53
2024-01-28T22:03:37.000Z,8.50
2024-01-28T22:08:44.214Z,8.80
2024-01-28T22:13:50.844Z,9.87
2024-01-28T22:19:07.227Z,8.83
2024-01-28T22:24:13.852Z,9.93
2024-01-28T22:29:22.552Z,8.37
2024-01-28T22:34:30.938Z,8.37
2024-01-28T22:39:36.287Z,9.87
2024-01-28T22:44:43.798Z,9.73
2024-01-28T22:49:51.825Z,8.57
2024-01-28T22:54:58.533Z,9.17
2024-01-28T23:00:05.216Z,8.73
2024-01-28T23:05:13.526Z,10.70
2024-01-28T23:10:20.986Z,9.57
2024-01-28T23:15:26.749Z,8.40
2024-01-28T23:20:35.568Z,9.27
2024-01-28T23:25:41.451Z,10.00
2024-01-28T23:30:46.725Z,9.77
2024-01-28T23:35:55.008Z,9.13
2024-01-28T23:41:00.502Z,9.30
2024-01-28T23:46:05.787Z,9.00
2024-01-28T23:51:14.291Z,9.70
2024-01-28T23:56:19.531Z,8.80
